Time;durP1;ratioP1;P1;durP2;ratioP2;P2;SDS_P1;SDS_P2;PMS_P1;PMS_P2;Temp;Humidity;BMP_temperature;BMP_pressure;BME280_temperature;BME280_humidity;BME280_pressure;Samples;Min_cycle;Max_cycle;Signal;HPM_P1;HPM_P2
2022/09/29 00:01:05;;;;;;;17.58;11.25;;;;;;;4.91;100.00;99918.13;5028687;28;20186;-68
2022/09/29 00:03:33;;;;;;;20.40;12.13;;;;;;;4.88;100.00;99920.78;5028939;28;20042;-68
2022/09/29 00:06:00;;;;;;;18.50;11.75;;;;;;;4.87;100.00;99921.69;5028517;28;20095;-67
2022/09/29 00:08:29;;;;;;;16.40;11.00;;;;;;;4.85;100.00;99915.63;5028466;28;20100;-68
2022/09/29 00:10:57;;;;;;;21.55;12.73;;;;;;;4.85;100.00;99914.78;5028132;28;20130;-68
2022/09/29 00:13:24;;;;;;;18.35;11.23;;;;;;;4.84;100.00;99915.66;5025192;28;20113;-68
2022/09/29 00:15:59;;;;;;;18.02;12.13;;;;;;;4.84;100.00;99910.44;5024287;28;20125;-67
2022/09/29 00:18:29;;;;;;;22.20;12.68;;;;;;;4.82;100.00;99910.50;5026946;28;20144;-67
2022/09/29 00:21:00;;;;;;;17.50;12.13;;;;;;;4.83;100.00;99917.44;5028444;28;20623;-67
2022/09/29 00:23:30;;;;;;;20.65;11.57;;;;;;;4.84;100.00;99913.06;5025126;28;20102;-67
2022/09/29 00:26:07;;;;;;;18.38;11.68;;;;;;;4.84;100.00;99918.28;5032145;28;20073;-67
2022/09/29 00:28:38;;;;;;;23.58;12.55;;;;;;;4.82;100.00;99915.72;5022278;28;20077;-68
2022/09/29 00:31:09;;;;;;;17.85;11.45;;;;;;;4.80;100.00;99907.88;5031971;28;20045;-68
2022/09/29 00:33:38;;;;;;;19.77;11.90;;;;;;;4.79;100.00;99916.63;5031710;28;20129;-68
2022/09/29 00:36:11;;;;;;;19.02;12.10;;;;;;;4.77;100.00;99905.38;5030647;28;20056;-68
2022/09/29 00:38:42;;;;;;;19.23;12.37;;;;;;;4.75;100.00;99911.50;5032471;28;20038;-68
2022/09/29 00:41:23;;;;;;;18.67;12.05;;;;;;;4.73;100.00;99911.53;5031107;28;20034;-68
2022/09/29 00:44:26;;;;;;;20.50;11.98;;;;;;;4.71;100.00;99913.31;5027959;28;20050;-70
2022/09/29 00:47:01;;;;;;;20.60;12.43;;;;;;;4.66;100.00;99917.78;5027930;28;20065;-70
2022/09/29 00:49:44;;;;;;;14.93;10.88;;;;;;;4.60;100.00;99913.53;5026356;28;20086;-69
2022/09/29 00:52:39;;;;;;;17.60;11.52;;;;;;;4.59;100.00;99918.78;5025367;28;20038;-69
2022/09/29 00:55:12;;;;;;;24.52;13.05;;;;;;;4.53;100.00;99922.38;5030381;28;20072;-69
2022/09/29 00:58:04;;;;;;;23.48;12.50;;;;;;;4.48;100.00;99925.06;5031365;28;20046;-69
2022/09/29 01:00:32;;;;;;;17.95;12.10;;;;;;;4.46;100.00;99923.38;5031062;28;21516;-69
2022/09/29 01:03:08;;;;;;;18.90;11.95;;;;;;;4.46;100.00;99918.16;5030625;28;20661;-69
2022/09/29 01:05:44;;;;;;;21.23;11.88;;;;;;;4.44;100.00;99917.34;5025122;28;20819;-70
2022/09/29 01:08:23;;;;;;;16.60;11.45;;;;;;;4.42;100.00;99917.38;5024172;28;20121;-70
2022/09/29 01:10:52;;;;;;;21.45;11.80;;;;;;;4.39;100.00;99916.59;5030571;28;20499;-69
2022/09/29 01:13:21;;;;;;;20.10;11.63;;;;;;;4.34;100.00;99911.44;5029571;28;20038;-69
2022/09/29 01:15:48;;;;;;;21.27;11.85;;;;;;;4.31;100.00;99914.09;5032580;28;20044;-69
2022/09/29 01:18:15;;;;;;;19.98;12.43;;;;;;;4.27;100.00;99913.31;5029372;28;20138;-68
2022/09/29 01:21:27;;;;;;;20.00;12.05;;;;;;;4.24;100.00;99912.53;5031713;28;20150;-67
2022/09/29 01:24:13;;;;;;;19.27;12.00;;;;;;;4.20;100.00;99912.56;5018407;28;20085;-67
2022/09/29 01:27:10;;;;;;;15.38;11.77;;;;;;;4.19;100.00;99917.81;5028112;28;20034;-67
2022/09/29 01:30:28;;;;;;;18.92;11.65;;;;;;;4.16;100.00;99916.16;5029078;28;20042;-67
2022/09/29 01:33:21;;;;;;;17.17;11.07;;;;;;;4.13;100.00;99912.69;5024002;28;20100;-67
2022/09/29 01:36:21;;;;;;;22.02;12.48;;;;;;;4.11;100.00;99917.13;5021147;28;20030;-68
2022/09/29 01:39:16;;;;;;;19.38;12.38;;;;;;;4.09;100.00;99919.72;5022432;28;20050;-67
2022/09/29 01:41:54;;;;;;;18.98;11.88;;;;;;;4.04;100.00;99919.81;5025875;28;20108;-68
2022/09/29 01:44:40;;;;;;;19.27;11.73;;;;;;;4.02;100.00;99920.75;5026102;28;20045;-69
2022/09/29 01:47:28;;;;;;;21.60;11.93;;;;;;;3.96;100.00;99921.72;5028811;28;20117;-68
2022/09/29 01:50:03;;;;;;;18.88;11.82;;;;;;;3.97;100.00;99922.59;5025747;28;20152;-68
2022/09/29 01:52:41;;;;;;;20.52;11.48;;;;;;;3.94;100.00;99920.03;5029059;28;20501;-66
2022/09/29 01:55:17;;;;;;;17.20;11.00;;;;;;;3.90;100.00;99914.00;5026929;28;20066;-66
2022/09/29 01:57:59;;;;;;;23.63;12.35;;;;;;;3.87;100.00;99920.09;5025538;28;20104;-68
2022/09/29 02:00:34;;;;;;;16.90;11.77;;;;;;;3.84;100.00;99925.41;5029275;28;20045;-67
2022/09/29 02:03:23;;;;;;;19.98;11.50;;;;;;;3.80;100.00;99915.06;5030664;28;20081;-67
2022/09/29 02:06:03;;;;;;;19.52;11.82;;;;;;;3.78;100.00;99925.47;5030285;28;20046;-67
2022/09/29 02:08:44;;;;;;;16.02;10.68;;;;;;;3.77;100.00;99923.75;5029455;28;20098;-68
2022/09/29 02:11:13;;;;;;;17.48;11.23;;;;;;;3.75;100.00;99917.75;5028311;28;20096;-69
2022/09/29 02:13:52;;;;;;;16.63;11.32;;;;;;;3.73;100.00;99912.53;5029810;28;20046;-68
2022/09/29 02:16:27;;;;;;;19.48;12.13;;;;;;;3.71;100.00;99922.13;5025967;28;20420;-69
2022/09/29 02:19:17;;;;;;;19.77;11.80;;;;;;;3.70;100.00;99916.94;5030652;28;20138;-69
2022/09/29 02:21:45;;;;;;;17.85;12.25;;;;;;;3.68;100.00;99924.78;5029878;28;20523;-69
2022/09/29 02:24:14;;;;;;;17.50;10.60;;;;;;;3.68;100.00;99921.31;5030716;28;20046;-68
2022/09/29 02:26:44;;;;;;;19.50;11.63;;;;;;;3.66;100.00;99923.09;5029169;28;20343;-69
2022/09/29 02:29:11;;;;;;;18.10;11.15;;;;;;;3.65;100.00;99924.84;5029590;28;20522;-69
2022/09/29 02:31:39;;;;;;;17.73;11.43;;;;;;;3.67;100.00;99933.50;5028477;28;20500;-68
2022/09/29 02:34:14;;;;;;;18.23;12.02;;;;;;;3.69;100.00;99929.13;5027476;28;20044;-69
2022/09/29 02:36:50;;;;;;;15.88;11.50;;;;;;;3.76;100.00;99934.22;5026857;28;20053;-70
2022/09/29 02:39:49;;;;;;;16.80;11.63;;;;;;;3.78;100.00;99937.69;5027953;28;20042;-70
2022/09/29 02:42:30;;;;;;;19.13;12.32;;;;;;;3.78;100.00;99932.47;5025754;28;20062;-70
2022/09/29 02:45:10;;;;;;;18.30;12.02;;;;;;;3.80;100.00;99931.53;5023430;28;20093;-70
2022/09/29 02:48:16;;;;;;;22.73;12.85;;;;;;;3.82;100.00;99926.28;5028163;28;20042;-70
2022/09/29 02:51:09;;;;;;;18.63;12.43;;;;;;;3.80;100.00;99931.53;5024464;28;20105;-70
2022/09/29 02:53:55;;;;;;;20.05;11.95;;;;;;;3.80;100.00;99928.94;5030135;28;20042;-70
2022/09/29 02:56:56;;;;;;;18.38;11.50;;;;;;;3.75;100.00;99928.16;5027396;28;20038;-70
2022/09/29 03:00:09;;;;;;;17.80;11.95;;;;;;;3.75;100.00;99924.69;5026217;28;20045;-70
2022/09/29 03:02:40;;;;;;;20.02;11.45;;;;;;;3.70;100.00;99922.16;5024752;28;20077;-70
2022/09/29 03:05:12;;;;;;;17.67;12.40;;;;;;;3.69;100.00;99923.03;5028131;28;20041;-70
2022/09/29 03:07:40;;;;;;;19.75;11.77;;;;;;;3.68;100.00;99923.91;5025836;28;20077;-70
2022/09/29 03:10:09;;;;;;;23.17;12.35;;;;;;;3.66;100.00;99921.34;5029831;28;20041;-69
2022/09/29 03:12:36;;;;;;;20.50;12.70;;;;;;;3.64;100.00;99925.72;5025695;28;20041;-66
2022/09/29 03:15:06;;;;;;;22.77;13.25;;;;;;;3.62;100.00;99919.66;5028948;28;20112;-66
2022/09/29 03:17:33;;;;;;;20.17;12.13;;;;;;;3.61;100.00;99925.78;5023758;28;20503;-66
2022/09/29 03:20:01;;;;;;;23.27;13.75;;;;;;;3.60;100.00;99923.19;5030657;28;20046;-66
2022/09/29 03:22:28;;;;;;;21.95;14.20;;;;;;;3.57;100.00;99922.34;5027150;28;20042;-66
2022/09/29 03:24:55;;;;;;;23.35;13.63;;;;;;;3.58;100.00;99925.84;5029982;28;20050;-66
2022/09/29 03:27:22;;;;;;;20.50;13.50;;;;;;;3.56;100.00;99918.00;5030188;28;20038;-68
2022/09/29 03:29:49;;;;;;;17.52;12.25;;;;;;;3.55;100.00;99931.09;5029166;28;20034;-69
2022/09/29 03:32:17;;;;;;;20.05;13.07;;;;;;;3.52;100.00;99928.50;5025288;28;20104;-69
2022/09/29 03:34:44;;;;;;;25.58;14.45;;;;;;;3.51;100.00;99924.22;5021158;28;20061;-68
2022/09/29 03:37:11;;;;;;;25.52;14.07;;;;;;;3.49;100.00;99928.59;5028744;28;20042;-68
2022/09/29 03:39:38;;;;;;;19.35;13.05;;;;;;;3.46;100.00;99926.03;5029737;28;20475;-68
2022/09/29 03:42:05;;;;;;;22.77;13.77;;;;;;;3.42;100.00;99920.84;5028141;28;20042;-68
2022/09/29 03:44:32;;;;;;;20.38;13.30;;;;;;;3.37;100.00;99933.09;5027759;28;20504;-69
2022/09/29 03:46:59;;;;;;;24.13;14.80;;;;;;;3.37;100.00;99937.44;5026522;28;20049;-69
2022/09/29 03:49:26;;;;;;;21.60;14.30;;;;;;;3.34;100.00;99940.94;5029519;28;20603;-70
2022/09/29 03:51:53;;;;;;;23.60;14.43;;;;;;;3.32;100.00;99934.91;5025715;28;20038;-69
2022/09/29 03:54:23;;;;;;;23.48;14.25;;;;;;;3.32;100.00;99940.09;5028542;28;20053;-70
2022/09/29 03:56:50;;;;;;;29.85;15.27;;;;;;;3.33;100.00;99943.59;5027118;28;20049;-69
2022/09/29 03:59:17;;;;;;;26.60;15.75;;;;;;;3.33;100.00;99944.44;5027946;28;20057;-69
2022/09/29 04:01:44;;;;;;;24.67;14.93;;;;;;;3.33;100.00;99941.84;5032069;28;20038;-69
2022/09/29 04:04:11;;;;;;;27.45;15.25;;;;;;;3.32;100.00;99942.72;5024165;28;20097;-70
2022/09/29 04:06:38;;;;;;;29.55;16.40;;;;;;;3.32;100.00;99950.53;5022831;28;20456;-70
2022/09/29 04:09:06;;;;;;;27.70;15.57;;;;;;;3.33;100.00;99946.19;5031162;28;20042;-70
2022/09/29 04:11:33;;;;;;;42.13;17.85;;;;;;;3.33;100.00;99944.44;5027611;28;20042;-70
2022/09/29 04:14:00;;;;;;;43.67;17.02;;;;;;;3.33;100.00;99943.59;5032202;28;20064;-69
2022/09/29 04:16:27;;;;;;;74.20;18.00;;;;;;;3.30;100.00;99952.31;5030524;28;20078;-70
2022/09/29 04:18:54;;;;;;;46.58;17.27;;;;;;;3.26;100.00;99953.25;5033295;28;20136;-68
2022/09/29 04:21:21;;;;;;;65.45;22.38;;;;;;;3.23;100.00;99961.09;5030364;28;20515;-68
2022/09/29 04:23:48;;;;;;;322.48;79.25;;;;;;;3.21;100.00;99958.50;5028855;28;20041;-70
2022/09/29 04:26:16;;;;;;;202.80;61.55;;;;;;;3.20;100.00;99959.41;5031161;28;20042;-71
2022/09/29 04:28:44;;;;;;;149.95;47.60;;;;;;;3.17;100.00;99956.81;5031998;28;20618;-69
2022/09/29 04:31:11;;;;;;;64.95;26.90;;;;;;;3.16;100.00;99962.91;5032180;28;20492;-68
2022/09/29 04:33:40;;;;;;;34.83;20.17;;;;;;;3.15;100.00;99956.00;5031191;28;20041;-68
2022/09/29 04:36:07;;;;;;;43.80;17.67;;;;;;;3.14;100.00;99961.22;5031011;28;20124;-68
2022/09/29 04:38:34;;;;;;;44.53;17.90;;;;;;;3.14;100.00;99961.22;5030545;28;20540;-67
2022/09/29 04:41:01;;;;;;;30.40;15.57;;;;;;;3.11;100.00;99955.16;5041175;28;20046;-67
2022/09/29 04:43:29;;;;;;;32.42;15.25;;;;;;;3.10;100.00;99958.66;5031098;28;20101;-67
2022/09/29 04:46:05;;;;;;;89.68;19.42;;;;;;;3.09;100.00;99964.75;5028570;28;20097;-67
2022/09/29 04:48:34;;;;;;;122.50;24.88;;;;;;;3.21;100.00;99961.13;5026475;28;20041;-67
2022/09/29 04:51:04;;;;;;;75.40;20.17;;;;;;;3.30;100.00;99964.47;5032715;28;20084;-66
2022/09/29 04:53:32;;;;;;;63.42;17.38;;;;;;;3.28;100.00;99967.09;5024402;28;20983;-67
2022/09/29 04:56:05;;;;;;;40.85;17.65;;;;;;;3.23;100.00;99971.50;5032325;28;20042;-66
2022/09/29 04:58:32;;;;;;;65.95;18.65;;;;;;;3.19;100.00;99968.09;5031396;28;20042;-67
2022/09/29 05:01:14;;;;;;;47.97;17.67;;;;;;;3.14;100.00;99971.63;5029284;28;20042;-66
2022/09/29 05:03:41;;;;;;;27.42;15.07;;;;;;;3.06;100.00;99975.22;5025113;28;20062;-67
2022/09/29 05:06:09;;;;;;;25.77;14.80;;;;;;;3.02;100.00;99973.50;5031754;28;20034;-66
2022/09/29 05:08:36;;;;;;;40.58;20.17;;;;;;;2.99;100.00;99981.38;5030373;28;20049;-67
2022/09/29 05:11:06;;;;;;;40.65;22.02;;;;;;;2.96;100.00;99978.81;5029856;28;20471;-66
2022/09/29 05:13:34;;;;;;;35.53;19.77;;;;;;;2.95;100.00;99987.50;5030689;28;20156;-67
2022/09/29 05:16:04;;;;;;;70.30;22.67;;;;;;;2.93;100.00;99978.84;5030135;28;20599;-67
2022/09/29 05:18:36;;;;;;;61.22;17.90;;;;;;;2.87;100.00;99985.00;5027653;28;20046;-67
2022/09/29 05:21:06;;;;;;;31.90;15.65;;;;;;;2.82;100.00;99988.53;5029697;28;20460;-67
2022/09/29 05:23:54;;;;;;;43.58;16.30;;;;;;;2.78;100.00;99998.13;5030166;28;20038;-67
2022/09/29 05:26:21;;;;;;;44.47;16.40;;;;;;;2.75;100.00;99995.53;5046946;28;20207;-67
2022/09/29 05:28:48;;;;;;;48.25;17.02;;;;;;;2.73;100.00;99992.97;5030353;28;20385;-68
2022/09/29 05:31:16;;;;;;;35.08;15.65;;;;;;;2.72;100.00;100000.81;5029533;28;20038;-68
2022/09/29 05:33:44;;;;;;;72.57;20.38;;;;;;;2.70;100.00;100005.16;5027793;28;20038;-68
2022/09/29 05:36:12;;;;;;;114.43;21.30;;;;;;;2.68;100.00;100009.50;5029504;28;20118;-68
2022/09/29 05:38:39;;;;;;;94.15;20.77;;;;;;;2.66;100.00;100012.16;5026345;28;20099;-68
2022/09/29 05:41:11;;;;;;;57.75;17.88;;;;;;;2.69;100.00;100014.72;5030527;28;20050;-68
2022/09/29 05:43:39;;;;;;;35.90;17.77;;;;;;;2.71;100.00;100015.53;5031133;28;20562;-68
2022/09/29 05:46:09;;;;;;;30.58;16.75;;;;;;;2.73;100.00;100021.59;5032342;28;20034;-68
2022/09/29 05:48:37;;;;;;;82.25;19.60;;;;;;;2.77;100.00;100023.31;5032304;28;20131;-68
2022/09/29 05:51:11;;;;;;;30.77;16.38;;;;;;;2.80;100.00;100028.44;5031374;28;20088;-68
2022/09/29 05:53:39;;;;;;;27.80;15.82;;;;;;;2.85;100.00;100023.19;5029423;28;20053;-68
2022/09/29 05:56:16;;;;;;;33.33;18.55;;;;;;;2.89;100.00;100021.44;5032920;28;20041;-68
2022/09/29 05:58:44;;;;;;;39.80;18.55;;;;;;;2.94;100.00;100027.44;5030595;28;20116;-68
2022/09/29 06:01:16;;;;;;;28.85;17.80;;;;;;;2.99;100.00;100028.25;5032210;28;20104;-68
2022/09/29 06:03:44;;;;;;;22.77;15.95;;;;;;;3.05;100.00;100024.72;5032757;28;20117;-68
2022/09/29 06:06:18;;;;;;;26.83;16.20;;;;;;;3.09;100.00;100026.38;5031227;28;20045;-68
2022/09/29 06:08:46;;;;;;;29.70;16.77;;;;;;;3.16;100.00;100028.03;5030075;28;20046;-67
2022/09/29 06:11:21;;;;;;;25.65;16.17;;;;;;;3.22;100.00;100027.97;5032566;28;20050;-68
2022/09/29 06:13:52;;;;;;;26.05;15.65;;;;;;;3.24;100.00;100034.03;5032719;28;20522;-69
2022/09/29 06:16:26;;;;;;;24.50;15.90;;;;;;;3.28;100.00;100033.97;5032345;28;20124;-68
2022/09/29 06:18:55;;;;;;;28.02;15.32;;;;;;;3.31;100.00;100032.19;5031858;28;20064;-68
2022/09/29 06:21:26;;;;;;;22.27;13.75;;;;;;;3.37;100.00;100041.66;5032690;28;20104;-68
2022/09/29 06:23:55;;;;;;;23.90;14.40;;;;;;;3.39;100.00;100040.78;5032068;28;20053;-68
2022/09/29 06:26:24;;;;;;;26.13;14.85;;;;;;;3.44;100.00;100045.03;5032017;28;20034;-68
2022/09/29 06:28:52;;;;;;;100.85;20.92;;;;;;;3.50;100.00;100042.38;5031827;28;20156;-68
2022/09/29 06:31:22;;;;;;;70.45;17.48;;;;;;;3.52;100.00;100038.84;5032155;28;20547;-68
2022/09/29 06:33:50;;;;;;;241.27;29.20;;;;;;;3.55;100.00;100049.25;5030817;28;20046;-68
2022/09/29 06:39:26;;;;;;;71.47;16.17;;;;;;;3.66;100.00;100050.84;5012310;28;20108;-68
2022/09/29 06:41:55;;;;;;;221.75;30.00;;;;;;;3.73;100.00;100050.69;5023348;28;20049;-68
2022/09/29 06:44:26;;;;;;;100.22;20.58;;;;;;;3.80;100.00;100055.84;5031404;28;20419;-68
2022/09/29 06:46:55;;;;;;;82.03;19.73;;;;;;;3.89;100.00;100053.09;5032481;28;20038;-68
2022/09/29 06:49:23;;;;;;;54.90;17.67;;;;;;;3.98;100.00;100062.50;5028867;28;20609;-68
2022/09/29 06:51:51;;;;;;;43.40;17.35;;;;;;;4.09;100.00;100060.59;5031070;28;20089;-68
2022/09/29 06:54:23;;;;;;;53.75;17.77;;;;;;;4.21;100.00;100059.56;5032253;28;20498;-68
2022/09/29 06:56:53;;;;;;;87.28;20.13;;;;;;;4.28;100.00;100063.78;5032098;28;20042;-68
2022/09/29 06:59:20;;;;;;;32.45;16.35;;;;;;;4.35;100.00;100064.53;5032138;28;20097;-68
2022/09/29 07:01:48;;;;;;;36.55;16.92;;;;;;;4.43;100.00;100067.00;5032286;28;20788;-69
2022/09/29 07:04:19;;;;;;;38.15;17.13;;;;;;;4.50;100.00;100072.09;5032139;28;20101;-69
2022/09/29 07:06:48;;;;;;;36.42;17.17;;;;;;;4.60;100.00;100069.31;5032406;28;20050;-68
2022/09/29 07:09:15;;;;;;;43.15;18.13;;;;;;;4.68;100.00;100072.63;5032432;28;20508;-68
2022/09/29 07:11:50;;;;;;;36.60;18.23;;;;;;;4.77;100.00;100062.06;5030756;28;20045;-68
2022/09/29 07:14:24;;;;;;;39.47;18.02;;;;;;;4.86;100.00;100074.06;5032274;28;20148;-68
2022/09/29 07:16:52;;;;;;;41.15;18.52;;;;;;;4.96;100.00;100074.75;5032283;28;20088;-68
2022/09/29 07:19:20;;;;;;;44.95;18.70;;;;;;;5.07;100.00;100071.91;5032185;28;20037;-68
2022/09/29 07:21:48;;;;;;;40.50;17.50;;;;;;;5.17;100.00;100070.84;5031223;28;20045;-68
2022/09/29 07:24:16;;;;;;;38.22;19.42;;;;;;;5.29;100.00;100081.06;5031263;28;20054;-68
2022/09/29 07:26:43;;;;;;;30.58;18.30;;;;;;;5.39;100.00;100073.88;5031655;28;20045;-68
2022/09/29 07:29:10;;;;;;;38.95;18.63;;;;;;;5.52;100.00;100086.69;5031702;28;20418;-68
2022/09/29 07:31:44;;;;;;;30.17;19.63;;;;;;;5.64;100.00;100088.19;5031200;28;20080;-68
2022/09/29 07:34:20;;;;;;;34.47;20.92;;;;;;;5.75;100.00;100089.66;5030372;28;20520;-68
2022/09/29 07:36:48;;;;;;;33.47;20.13;;;;;;;5.85;100.00;100089.44;5031785;28;20068;-68
2022/09/29 07:39:16;;;;;;;29.42;19.98;;;;;;;5.96;100.00;100091.81;5030765;28;20818;-68
2022/09/29 07:41:44;;;;;;;37.97;20.67;;;;;;;6.03;100.00;100089.06;5030602;28;20125;-68
2022/09/29 07:44:11;;;;;;;34.83;20.45;;;;;;;6.15;100.00;100090.53;5031198;28;20034;-68
2022/09/29 07:46:39;;;;;;;31.60;19.33;;;;;;;6.25;100.00;100091.16;5031050;28;20041;-68
2022/09/29 07:49:07;;;;;;;34.30;20.25;;;;;;;6.35;100.00;100094.44;5031292;28;20069;-68
2022/09/29 07:51:34;;;;;;;31.73;20.98;;;;;;;6.45;100.00;100089.81;5031313;28;20108;-67
2022/09/29 07:54:04;;;;;;;32.75;20.23;;;;;;;6.55;100.00;100096.53;5030890;28;20050;-69
2022/09/29 07:56:31;;;;;;;34.90;20.38;;;;;;;6.67;100.00;100098.84;5029270;28;20100;-69
2022/09/29 07:59:01;;;;;;;31.23;20.83;;;;;;;6.79;100.00;100110.75;5028699;28;20919;-69
2022/09/29 08:01:28;;;;;;;31.75;19.90;;;;;;;6.89;100.00;100113.13;5030962;28;20042;-69
2022/09/29 08:03:56;;;;;;;33.00;19.83;;;;;;;6.98;100.00;100110.25;5031357;28;20500;-69
2022/09/29 08:06:25;;;;;;;26.92;18.83;;;;;;;7.11;100.00;100110.78;5031117;28;20061;-69
2022/09/29 08:08:53;;;;;;;32.38;20.40;;;;;;;7.21;100.00;100114.00;5030667;28;20408;-70
2022/09/29 08:11:35;;;;;;;30.08;20.13;;;;;;;7.37;100.00;100117.06;5030933;28;20149;-69
2022/09/29 08:14:03;;;;;;;31.05;20.10;;;;;;;7.49;100.00;100119.34;5030395;28;20069;-69
2022/09/29 08:16:31;;;;;;;32.30;20.73;;;;;;;7.63;100.00;100118.06;5031263;28;20104;-69
2022/09/29 08:18:59;;;;;;;28.20;19.67;;;;;;;7.76;100.00;100122.91;5030262;28;20820;-69
2022/09/29 08:21:28;;;;;;;31.33;20.23;;;;;;;7.93;100.00;100129.41;5030626;28;20050;-69
2022/09/29 08:23:57;;;;;;;32.15;21.27;;;;;;;8.06;99.87;100124.63;5030847;28;20038;-69
2022/09/29 08:26:24;;;;;;;33.47;21.60;;;;;;;8.19;99.77;100136.47;5030957;28;20528;-67
2022/09/29 08:29:08;;;;;;;31.38;21.00;;;;;;;8.37;99.72;100142.03;5029869;28;20037;-67
2022/09/29 08:31:39;;;;;;;34.85;22.20;;;;;;;8.53;99.65;100139.78;5030379;28;20042;-67
2022/09/29 08:34:06;;;;;;;29.92;20.13;;;;;;;8.61;99.80;100140.38;5030722;28;20886;-68
2022/09/29 08:36:33;;;;;;;29.60;20.13;;;;;;;8.58;99.71;100137.88;5030403;28;20455;-68
2022/09/29 08:39:00;;;;;;;37.10;22.75;;;;;;;8.68;99.43;100139.28;5030716;28;20197;-68
2022/09/29 08:41:59;;;;;;;32.97;22.17;;;;;;;8.83;99.16;100140.53;5030699;28;20050;-68
2022/09/29 08:44:57;;;;;;;30.90;21.20;;;;;;;9.00;99.21;100149.59;5025711;28;20042;-68
2022/09/29 08:47:47;;;;;;;30.10;21.50;;;;;;;9.13;99.02;100148.28;5014206;28;20042;-68
2022/09/29 08:50:30;;;;;;;34.35;22.42;;;;;;;9.27;99.02;100150.41;5031120;28;20500;-68
2022/09/29 08:53:05;;;;;;;30.30;21.10;;;;;;;9.42;99.24;100149.00;5034218;28;20042;-68
2022/09/29 08:55:36;;;;;;;32.83;21.27;;;;;;;9.59;99.10;100147.50;5034199;28;20893;-69
2022/09/29 08:58:13;;;;;;;31.48;20.33;;;;;;;9.74;99.21;100156.59;5032535;28;20064;-68
2022/09/29 09:01:04;;;;;;;29.00;19.65;;;;;;;9.86;98.81;100160.56;5033707;28;20050;-68
2022/09/29 09:04:04;;;;;;;30.15;21.05;;;;;;;9.97;98.47;100160.97;5033350;28;20046;-68
2022/09/29 09:07:22;;;;;;;26.85;18.60;;;;;;;10.10;98.27;100150.84;5025327;28;20041;-68
2022/09/29 09:10:15;;;;;;;23.02;17.95;;;;;;;10.21;98.14;100160.94;5031827;28;20112;-68
2022/09/29 09:12:58;;;;;;;27.38;18.05;;;;;;;10.29;97.75;100165.91;5032989;28;20463;-69
2022/09/29 09:15:50;;;;;;;24.80;17.77;;;;;;;10.37;97.78;100164.75;5033255;28;20050;-68
2022/09/29 09:19:02;;;;;;;24.45;18.02;;;;;;;10.49;97.67;100159.84;5031726;28;20054;-68
2022/09/29 09:22:06;;;;;;;26.98;19.23;;;;;;;10.62;97.29;100170.78;5033549;28;20046;-68
2022/09/29 09:24:55;;;;;;;31.63;18.70;;;;;;;10.74;97.08;100170.25;5032969;28;20045;-68
2022/09/29 09:27:36;;;;;;;24.40;17.52;;;;;;;10.86;96.47;100167.09;5022910;28;20046;-68
2022/09/29 09:30:16;;;;;;;28.60;15.38;;;;;;;10.95;96.08;100172.91;5032006;28;20104;-68
2022/09/29 09:33:00;;;;;;;21.88;16.85;;;;;;;10.98;95.09;100165.75;5032718;28;20519;-68
2022/09/29 09:35:50;;;;;;;24.02;16.77;;;;;;;11.03;95.31;100173.47;5032369;28;20049;-68
2022/09/29 09:38:38;;;;;;;23.85;16.63;;;;;;;11.09;94.49;100165.28;5033177;28;20042;-68
2022/09/29 09:41:08;;;;;;;24.88;16.17;;;;;;;11.16;93.99;100166.72;5032655;28;20054;-69
2022/09/29 09:44:09;;;;;;;28.20;17.30;;;;;;;11.24;93.74;100165.53;5030976;28;20042;-68
2022/09/29 09:46:51;;;;;;;24.55;17.08;;;;;;;11.31;93.84;100167.81;5031198;28;20046;-68
2022/09/29 09:49:32;;;;;;;26.33;18.23;;;;;;;11.41;93.04;100172.69;5029945;28;20084;-69
2022/09/29 09:52:17;;;;;;;24.30;17.10;;;;;;;11.54;93.50;100173.03;5032505;28;20083;-69
2022/09/29 09:54:51;;;;;;;22.60;16.17;;;;;;;11.67;93.46;100175.97;5032783;28;20073;-68
2022/09/29 09:57:51;;;;;;;23.77;15.60;;;;;;;11.75;92.68;100174.66;5031533;28;20511;-69
2022/09/29 10:00:28;;;;;;;24.27;15.05;;;;;;;11.85;90.68;100172.47;5031539;28;20049;-69
2022/09/29 10:03:00;;;;;;;26.85;15.98;;;;;;;11.95;91.46;100176.38;5032852;28;20526;-69
2022/09/29 10:05:48;;;;;;;24.00;17.02;;;;;;;12.09;91.96;100175.78;5032039;28;20053;-69
2022/09/29 10:08:28;;;;;;;23.13;16.13;;;;;;;12.04;92.82;100179.56;5031767;28;20046;-69
2022/09/29 10:10:57;;;;;;;23.45;14.50;;;;;;;12.09;92.87;100175.78;5031958;28;20492;-69
2022/09/29 10:13:30;;;;;;;36.70;27.13;;;;;;;12.21;92.25;100173.47;5031727;28;20108;-69
2022/09/29 10:16:12;;;;;;;32.00;22.10;;;;;;;12.34;90.95;100174.63;5031937;28;20042;-69
2022/09/29 10:18:47;;;;;;;22.70;16.13;;;;;;;12.51;89.71;100178.22;5031990;28;20483;-69
2022/09/29 10:21:34;;;;;;;22.13;13.95;;;;;;;12.67;88.94;100187.09;5032607;28;20034;-69
2022/09/29 10:24:06;;;;;;;21.00;14.65;;;;;;;12.80;89.07;100181.19;5032489;28;20385;-68
2022/09/29 10:26:43;;;;;;;25.27;17.98;;;;;;;12.95;89.48;100180.44;5032699;28;20050;-68
2022/09/29 10:29:37;;;;;;;17.27;14.02;;;;;;;13.16;87.98;100178.47;5030193;28;20046;-68
2022/09/29 10:32:09;;;;;;;27.98;17.25;;;;;;;13.29;88.60;100181.34;5032137;28;20095;-68
2022/09/29 10:34:41;;;;;;;23.48;15.18;;;;;;;13.49;87.50;100182.09;5031812;28;20030;-68
2022/09/29 10:37:26;;;;;;;18.60;12.13;;;;;;;13.72;86.49;100186.19;5031944;28;20121;-68
2022/09/29 10:40:11;;;;;;;;;;;;;;;13.93;86.08;100181.50;5032091;28;20045;-68
2022/09/29 10:42:42;;;;;;;15.75;11.55;;;;;;;14.08;86.97;100193.06;5016504;28;19961;-69
2022/09/29 10:45:16;;;;;;;15.18;12.00;;;;;;;14.12;86.17;100191.97;5030381;28;20523;-68
2022/09/29 10:47:59;;;;;;;15.95;12.30;;;;;;;14.22;86.25;100191.44;5030132;28;20049;-69
2022/09/29 10:50:34;;;;;;;15.20;9.85;;;;;;;14.40;81.00;100202.78;5031454;28;20053;-69
2022/09/29 10:53:21;;;;;;;13.77;9.15;;;;;;;14.35;78.81;100195.09;5032094;28;20535;-68
2022/09/29 10:55:56;;;;;;;13.48;9.32;;;;;;;14.13;81.42;100193.69;5031855;28;20480;-68
2022/09/29 10:58:31;;;;;;;11.23;8.07;;;;;;;14.21;77.41;100197.69;5031299;28;20182;-69
2022/09/29 11:01:20;;;;;;;12.23;8.10;;;;;;;14.14;75.10;100200.66;5029544;28;20097;-69
2022/09/29 11:04:05;;;;;;;11.15;8.32;;;;;;;14.08;73.02;100206.31;5028435;28;20033;-69
2022/09/29 11:06:39;;;;;;;13.50;9.13;;;;;;;13.79;75.78;100208.75;5029657;28;20057;-69
2022/09/29 11:09:14;;;;;;;15.88;8.98;;;;;;;13.55;78.34;100210.06;5031739;28;20384;-69
2022/09/29 11:11:47;;;;;;;13.25;9.75;;;;;;;13.39;79.64;100199.38;5031578;28;20765;-69
2022/09/29 11:14:35;;;;;;;15.32;11.40;;;;;;;13.33;81.49;100204.06;5031960;28;20431;-69
2022/09/29 11:17:30;;;;;;;21.42;10.13;;;;;;;13.41;82.79;100203.72;5029152;28;20076;-69
2022/09/29 11:20:05;;;;;;;12.23;8.25;;;;;;;13.71;78.94;100207.44;5030823;28;20500;-69
2022/09/29 11:23:06;;;;;;;13.20;10.05;;;;;;;13.66;77.71;100202.41;5031665;28;20531;-69
2022/09/29 11:26:06;;;;;;;14.10;8.65;;;;;;;13.85;77.99;100201.41;5030777;28;20479;-69
2022/09/29 11:29:18;;;;;;;11.98;8.43;;;;;;;13.67;80.03;100204.13;5031413;28;20121;-69
2022/09/29 11:32:03;;;;;;;9.55;8.10;;;;;;;13.56;79.62;100206.47;5027818;28;20057;-69
2022/09/29 11:34:51;;;;;;;9.02;7.00;;;;;;;13.79;77.70;100200.81;5026361;28;20042;-70
2022/09/29 11:37:46;;;;;;;9.23;6.53;;;;;;;14.04;77.30;100204.75;5030381;28;20046;-68
2022/09/29 11:40:30;;;;;;;9.93;6.53;;;;;;;14.21;74.84;100198.53;5030480;28;20168;-69
2022/09/29 11:43:25;;;;;;;8.07;5.90;;;;;;;14.19;74.88;100202.22;5028800;28;20049;-69
2022/09/29 11:46:05;;;;;;;;;;;;;;;14.08;77.18;100208.13;5029344;28;20130;-69
2022/09/29 11:49:03;;;;;;;11.35;7.07;;;;;;;13.92;78.74;100211.59;5024633;28;19995;-69
2022/09/29 11:51:56;;;;;;;10.10;6.20;;;;;;;14.14;79.24;100210.41;5011468;28;20039;-69
2022/09/29 11:55:17;;;;;;;8.07;5.80;;;;;;;14.52;77.27;100210.06;5010790;28;20062;-69
2022/09/29 11:58:25;;;;;;;7.28;5.30;;;;;;;14.79;77.20;100216.56;5025677;28;20061;-69